sensor_id;sensor_type;location;lat;lon;timestamp;P1;P2;P0
35654;PMS1003;21773;50.010;19.972;2023-05-02T00:02:02;15.80;14.20;12.40
35654;PMS1003;21773;50.010;19.972;2023-05-02T00:05:06;14.00;13.00;12.00
35654;PMS1003;21773;50.010;19.972;2023-05-02T00:08:10;20.40;18.60;16.60
35654;PMS1003;21773;50.010;19.972;2023-05-02T00:11:14;19.00;17.00;15.00
35654;PMS1003;21773;50.010;19.972;2023-05-02T00:14:17;19.80;18.60;16.80
35654;PMS1003;21773;50.010;19.972;2023-05-02T00:17:22;20.40;19.40;16.40
35654;PMS1003;21773;50.010;19.972;2023-05-02T00:20:25;20.00;16.00;14.60
35654;PMS1003;21773;50.010;19.972;2023-05-02T00:23:28;17.00;16.00;15.00
35654;PMS1003;21773;50.010;19.972;2023-05-02T00:26:32;17.40;15.40;13.60
35654;PMS1003;21773;50.010;19.972;2023-05-02T00:29:35;17.60;16.60;15.00
35654;PMS1003;21773;50.010;19.972;2023-05-02T00:32:39;19.50;17.50;15.50
35654;PMS1003;21773;50.010;19.972;2023-05-02T00:35:43;19.40;18.00;16.00
35654;PMS1003;21773;50.010;19.972;2023-05-02T00:38:46;16.40;14.60;11.60
35654;PMS1003;21773;50.010;19.972;2023-05-02T00:41:55;18.00;16.50;14.50
35654;PMS1003;21773;50.010;19.972;2023-05-02T00:44:58;18.00;17.00;15.40
35654;PMS1003;21773;50.010;19.972;2023-05-02T00:48:03;20.00;18.00;16.40
35654;PMS1003;21773;50.010;19.972;2023-05-02T00:51:07;19.00;17.40;16.40
35654;PMS1003;21773;50.010;19.972;2023-05-02T00:54:12;15.00;13.50;12.00
35654;PMS1003;21773;50.010;19.972;2023-05-02T00:57:16;19.00;17.00;16.00
35654;PMS1003;21773;50.010;19.972;2023-05-02T01:00:20;18.00;17.00;15.00
35654;PMS1003;21773;50.010;19.972;2023-05-02T01:03:28;15.00;13.60;12.60
35654;PMS1003;21773;50.010;19.972;2023-05-02T01:06:52;21.50;18.50;15.50
35654;PMS1003;21773;50.010;19.972;2023-05-02T01:10:10;16.25;15.25;14.00
35654;PMS1003;21773;50.010;19.972;2023-05-02T01:13:23;18.00;17.40;15.00
35654;PMS1003;21773;50.010;19.972;2023-05-02T01:16:31;19.40;18.00;17.00
35654;PMS1003;21773;50.010;19.972;2023-05-02T01:19:41;16.40;15.60;14.40
35654;PMS1003;21773;50.010;19.972;2023-05-02T01:22:55;21.20;19.20;17.80
35654;PMS1003;21773;50.010;19.972;2023-05-02T01:26:09;16.75;15.75;14.75
35654;PMS1003;21773;50.010;19.972;2023-05-02T01:29:20;15.00;14.20;13.00
35654;PMS1003;21773;50.010;19.972;2023-05-02T01:32:25;20.25;18.00;15.00
35654;PMS1003;21773;50.010;19.972;2023-05-02T01:35:32;14.50;14.00;12.00
35654;PMS1003;21773;50.010;19.972;2023-05-02T01:38:37;19.50;17.50;14.50
35654;PMS1003;21773;50.010;19.972;2023-05-02T01:41:41;15.75;14.75;12.25
35654;PMS1003;21773;50.010;19.972;2023-05-02T01:44:49;16.20;15.00;13.40
35654;PMS1003;21773;50.010;19.972;2023-05-02T01:47:55;20.20;17.80;15.00
35654;PMS1003;21773;50.010;19.972;2023-05-02T01:51:00;16.60;16.00;15.00
35654;PMS1003;21773;50.010;19.972;2023-05-02T01:54:07;21.00;19.60;15.80
35654;PMS1003;21773;50.010;19.972;2023-05-02T01:57:12;20.00;17.40;15.40
35654;PMS1003;21773;50.010;19.972;2023-05-02T02:00:21;19.00;17.00;15.00
35654;PMS1003;21773;50.010;19.972;2023-05-02T02:03:26;17.00;16.00;14.00
35654;PMS1003;21773;50.010;19.972;2023-05-02T02:06:33;18.60;17.20;14.20
35654;PMS1003;21773;50.010;19.972;2023-05-02T02:09:37;18.00;16.60;15.00
35654;PMS1003;21773;50.010;19.972;2023-05-02T02:12:41;16.80;15.00;13.20
35654;PMS1003;21773;50.010;19.972;2023-05-02T02:15:49;18.00;17.00;14.40
35654;PMS1003;21773;50.010;19.972;2023-05-02T02:19:01;18.20;17.20;14.80
35654;PMS1003;21773;50.010;19.972;2023-05-02T02:22:09;18.00;17.00;14.40
35654;PMS1003;21773;50.010;19.972;2023-05-02T02:25:17;13.00;12.20;11.20
35654;PMS1003;21773;50.010;19.972;2023-05-02T02:28:20;19.40;17.40;15.40
35654;PMS1003;21773;50.010;19.972;2023-05-02T02:31:30;19.40;19.00;17.00
35654;PMS1003;21773;50.010;19.972;2023-05-02T02:34:33;20.00;18.60;15.60
35654;PMS1003;21773;50.010;19.972;2023-05-02T02:37:38;18.50;17.50;14.50
35654;PMS1003;21773;50.010;19.972;2023-05-02T02:40:46;18.25;16.75;15.25
35654;PMS1003;21773;50.010;19.972;2023-05-02T02:43:59;19.00;16.50;15.50
35654;PMS1003;21773;50.010;19.972;2023-05-02T02:47:10;18.75;17.75;15.50
35654;PMS1003;21773;50.010;19.972;2023-05-02T02:50:22;18.00;15.33;13.33
35654;PMS1003;21773;50.010;19.972;2023-05-02T02:53:33;18.00;17.80;16.00
35654;PMS1003;21773;50.010;19.972;2023-05-02T02:56:48;20.00;19.40;17.80
35654;PMS1003;21773;50.010;19.972;2023-05-02T03:00:00;18.50;17.50;15.50
35654;PMS1003;21773;50.010;19.972;2023-05-02T03:03:10;21.00;18.00;16.00
35654;PMS1003;21773;50.010;19.972;2023-05-02T03:06:16;16.00;15.00;13.00
35654;PMS1003;21773;50.010;19.972;2023-05-02T03:09:20;21.40;19.00;16.60
35654;PMS1003;21773;50.010;19.972;2023-05-02T03:12:25;18.00;16.40;15.00
35654;PMS1003;21773;50.010;19.972;2023-05-02T03:15:35;20.00;19.00;16.00
35654;PMS1003;21773;50.010;19.972;2023-05-02T03:19:16;20.00;17.60;16.00
35654;PMS1003;21773;50.010;19.972;2023-05-02T03:22:19;19.80;18.80;16.20
35654;PMS1003;21773;50.010;19.972;2023-05-02T03:25:23;18.00;17.00;14.50
35654;PMS1003;21773;50.010;19.972;2023-05-02T03:28:27;20.00;19.00;17.00
35654;PMS1003;21773;50.010;19.972;2023-05-02T03:31:31;18.00;16.20;14.20
35654;PMS1003;21773;50.010;19.972;2023-05-02T03:34:36;21.00;19.00;17.00
35654;PMS1003;21773;50.010;19.972;2023-05-02T03:37:39;17.00;16.00;14.00
35654;PMS1003;21773;50.010;19.972;2023-05-02T03:40:43;21.00;18.60;16.60
35654;PMS1003;21773;50.010;19.972;2023-05-02T03:43:47;19.40;17.00;15.00
35654;PMS1003;21773;50.010;19.972;2023-05-02T03:46:50;19.80;19.20;17.20
35654;PMS1003;21773;50.010;19.972;2023-05-02T03:49:56;17.00;14.75;13.00
35654;PMS1003;21773;50.010;19.972;2023-05-02T03:53:01;14.60;14.00;13.00
35654;PMS1003;21773;50.010;19.972;2023-05-02T03:56:16;14.00;14.00;12.00
35654;PMS1003;21773;50.010;19.972;2023-05-02T03:59:31;15.00;15.00;14.00
35654;PMS1003;21773;50.010;19.972;2023-05-02T04:02:44;19.00;17.75;15.75
35654;PMS1003;21773;50.010;19.972;2023-05-02T04:05:52;15.75;15.00;13.00
35654;PMS1003;21773;50.010;19.972;2023-05-02T04:08:56;18.40;17.40;15.40
35654;PMS1003;21773;50.010;19.972;2023-05-02T04:12:06;19.00;16.60;15.00
35654;PMS1003;21773;50.010;19.972;2023-05-02T04:15:13;16.80;15.80;13.80
35654;PMS1003;21773;50.010;19.972;2023-05-02T04:18:18;15.40;15.00;13.40
35654;PMS1003;21773;50.010;19.972;2023-05-02T04:21:23;17.20;16.20;14.20
35654;PMS1003;21773;50.010;19.972;2023-05-02T04:24:26;16.00;16.00;14.00
35654;PMS1003;21773;50.010;19.972;2023-05-02T04:27:32;21.00;20.00;18.00
35654;PMS1003;21773;50.010;19.972;2023-05-02T04:30:35;18.75;17.25;14.75
35654;PMS1003;21773;50.010;19.972;2023-05-02T04:33:43;22.40;20.00;17.60
35654;PMS1003;21773;50.010;19.972;2023-05-02T04:36:48;16.20;16.20;14.00
35654;PMS1003;21773;50.010;19.972;2023-05-02T04:39:55;17.75;17.00;16.00
35654;PMS1003;21773;50.010;19.972;2023-05-02T04:43:01;22.75;21.00;19.75
35654;PMS1003;21773;50.010;19.972;2023-05-02T04:46:13;19.00;17.60;15.60
35654;PMS1003;21773;50.010;19.972;2023-05-02T04:49:16;20.75;19.00;17.00
35654;PMS1003;21773;50.010;19.972;2023-05-02T04:52:21;19.20;18.20;16.00
35654;PMS1003;21773;50.010;19.972;2023-05-02T04:55:25;20.25;17.25;16.00
35654;PMS1003;21773;50.010;19.972;2023-05-02T04:58:28;19.80;17.80;15.80
35654;PMS1003;21773;50.010;19.972;2023-05-02T05:01:36;19.40;16.40;14.40
35654;PMS1003;21773;50.010;19.972;2023-05-02T05:04:41;18.00;16.40;15.00
35654;PMS1003;21773;50.010;19.972;2023-05-02T05:07:48;16.00;15.00;14.00
35654;PMS1003;21773;50.010;19.972;2023-05-02T05:10:55;16.60;14.60;13.00
35654;PMS1003;21773;50.010;19.972;2023-05-02T05:13:59;12.67;12.00;11.00
35654;PMS1003;21773;50.010;19.972;2023-05-02T05:17:07;10.00;9.00;7.00
35654;PMS1003;21773;50.010;19.972;2023-05-02T05:20:11;8.60;7.60;7.60
35654;PMS1003;21773;50.010;19.972;2023-05-02T05:23:17;6.20;5.80;5.00
35654;PMS1003;21773;50.010;19.972;2023-05-02T05:26:20;4.60;4.60;4.00
35654;PMS1003;21773;50.010;19.972;2023-05-02T05:29:25;6.50;6.50;6.00
35654;PMS1003;21773;50.010;19.972;2023-05-02T05:32:28;3.60;3.60;3.60
35654;PMS1003;21773;50.010;19.972;2023-05-02T05:35:32;5.50;5.00;5.00
35654;PMS1003;21773;50.010;19.972;2023-05-02T05:38:37;7.40;7.00;6.40
35654;PMS1003;21773;50.010;19.972;2023-05-02T05:41:42;7.00;7.00;6.00
35654;PMS1003;21773;50.010;19.972;2023-05-02T05:44:47;4.00;4.00;4.00
35654;PMS1003;21773;50.010;19.972;2023-05-02T05:47:52;5.33;5.33;5.33
35654;PMS1003;21773;50.010;19.972;2023-05-02T05:51:01;8.00;7.00;7.00
35654;PMS1003;21773;50.010;19.972;2023-05-02T05:54:07;7.00;6.50;6.00
35654;PMS1003;21773;50.010;19.972;2023-05-02T05:57:12;5.00;5.00;5.00
35654;PMS1003;21773;50.010;19.972;2023-05-02T06:00:17;4.00;4.00;4.00
35654;PMS1003;21773;50.010;19.972;2023-05-02T06:03:24;5.00;5.00;5.00
35654;PMS1003;21773;50.010;19.972;2023-05-02T06:06:28;4.00;4.00;3.60
35654;PMS1003;21773;50.010;19.972;2023-05-02T06:09:33;4.00;3.00;2.40
35654;PMS1003;21773;50.010;19.972;2023-05-02T06:12:37;5.50;4.00;4.00
35654;PMS1003;21773;50.010;19.972;2023-05-02T06:15:42;3.60;3.60;3.40
35654;PMS1003;21773;50.010;19.972;2023-05-02T06:18:45;4.00;4.00;4.00
35654;PMS1003;21773;50.010;19.972;2023-05-02T06:21:49;5.00;5.00;4.00
35654;PMS1003;21773;50.010;19.972;2023-05-02T06:24:54;5.80;5.80;5.00
35654;PMS1003;21773;50.010;19.972;2023-05-02T06:27:57;4.75;4.00;4.00
35654;PMS1003;21773;50.010;19.972;2023-05-02T06:31:01;3.40;3.40;3.00
35654;PMS1003;21773;50.010;19.972;2023-05-02T06:34:06;5.40;5.00;4.00
35654;PMS1003;21773;50.010;19.972;2023-05-02T06:37:09;5.00;4.00;4.00
35654;PMS1003;21773;50.010;19.972;2023-05-02T06:40:14;4.80;3.80;3.20
35654;PMS1003;21773;50.010;19.972;2023-05-02T06:43:17;3.00;3.00;3.00
35654;PMS1003;21773;50.010;19.972;2023-05-02T06:46:21;4.00;4.00;4.00
35654;PMS1003;21773;50.010;19.972;2023-05-02T06:49:24;4.60;4.60;4.40
35654;PMS1003;21773;50.010;19.972;2023-05-02T06:52:28;3.60;3.00;3.00
35654;PMS1003;21773;50.010;19.972;2023-05-02T06:55:33;5.25;5.25;5.00
35654;PMS1003;21773;50.010;19.972;2023-05-02T06:58:36;3.00;3.00;2.50
35654;PMS1003;21773;50.010;19.972;2023-05-02T07:01:40;4.00;3.40;3.00
35654;PMS1003;21773;50.010;19.972;2023-05-02T07:04:43;7.00;6.00;6.00
35654;PMS1003;21773;50.010;19.972;2023-05-02T07:07:46;5.20;5.00;4.80
35654;PMS1003;21773;50.010;19.972;2023-05-02T07:10:51;4.60;4.00;4.00
35654;PMS1003;21773;50.010;19.972;2023-05-02T07:13:54;4.00;3.40;3.40
35654;PMS1003;21773;50.010;19.972;2023-05-02T07:16:58;3.60;3.60;3.00
35654;PMS1003;21773;50.010;19.972;2023-05-02T07:20:01;6.00;5.00;5.00
35654;PMS1003;21773;50.010;19.972;2023-05-02T07:23:06;5.00;5.00;4.60
35654;PMS1003;21773;50.010;19.972;2023-05-02T07:26:11;4.80;4.80;4.80
35654;PMS1003;21773;50.010;19.972;2023-05-02T07:29:14;5.00;5.00;5.00
35654;PMS1003;21773;50.010;19.972;2023-05-02T07:32:18;4.40;4.40;4.00
35654;PMS1003;21773;50.010;19.972;2023-05-02T07:35:22;5.00;5.00;4.40
35654;PMS1003;21773;50.010;19.972;2023-05-02T07:38:26;7.00;6.00;5.50
35654;PMS1003;21773;50.010;19.972;2023-05-02T07:41:30;9.80;8.80;8.00
35654;PMS1003;21773;50.010;19.972;2023-05-02T07:44:34;9.60;9.40;8.60
35654;PMS1003;21773;50.010;19.972;2023-05-02T07:47:37;6.60;6.60;6.00
35654;PMS1003;21773;50.010;19.972;2023-05-02T07:50:41;8.80;8.80;8.00
35654;PMS1003;21773;50.010;19.972;2023-05-02T07:53:44;6.40;6.40;6.00
35654;PMS1003;21773;50.010;19.972;2023-05-02T07:56:49;10.00;10.00;9.00
35654;PMS1003;21773;50.010;19.972;2023-05-02T07:59:52;9.00;8.00;8.00
35654;PMS1003;21773;50.010;19.972;2023-05-02T08:02:58;7.00;7.00;6.20
35654;PMS1003;21773;50.010;19.972;2023-05-02T08:06:01;8.00;7.00;7.00
35654;PMS1003;21773;50.010;19.972;2023-05-02T08:09:05;9.00;9.00;8.00
35654;PMS1003;21773;50.010;19.972;2023-05-02T08:12:11;7.00;6.00;6.00
35654;PMS1003;21773;50.010;19.972;2023-05-02T08:15:14;5.00;5.00;5.00
35654;PMS1003;21773;50.010;19.972;2023-05-02T08:18:17;9.00;9.00;8.80
35654;PMS1003;21773;50.010;19.972;2023-05-02T08:21:21;6.40;5.80;5.40
35654;PMS1003;21773;50.010;19.972;2023-05-02T08:24:24;6.20;6.20;5.60
35654;PMS1003;21773;50.010;19.972;2023-05-02T08:27:29;7.00;7.00;6.40
35654;PMS1003;21773;50.010;19.972;2023-05-02T08:30:32;8.00;7.00;7.00
35654;PMS1003;21773;50.010;19.972;2023-05-02T08:33:35;7.00;6.00;6.00
35654;PMS1003;21773;50.010;19.972;2023-05-02T08:36:39;6.00;5.00;5.00
35654;PMS1003;21773;50.010;19.972;2023-05-02T08:39:42;7.00;7.00;7.00
35654;PMS1003;21773;50.010;19.972;2023-05-02T08:42:46;7.00;6.60;6.60
35654;PMS1003;21773;50.010;19.972;2023-05-02T08:45:50;8.00;7.60;7.00
35654;PMS1003;21773;50.010;19.972;2023-05-02T08:48:56;7.00;5.60;5.00
35654;PMS1003;21773;50.010;19.972;2023-05-02T08:52:00;7.40;6.60;6.00
35654;PMS1003;21773;50.010;19.972;2023-05-02T08:55:05;8.00;7.00;6.00
35654;PMS1003;21773;50.010;19.972;2023-05-02T08:58:11;6.00;6.00;5.00
35654;PMS1003;21773;50.010;19.972;2023-05-02T09:01:17;5.75;4.75;4.00
35654;PMS1003;21773;50.010;19.972;2023-05-02T09:04:22;6.00;6.00;6.00
35654;PMS1003;21773;50.010;19.972;2023-05-02T09:07:40;7.00;6.00;6.00
35654;PMS1003;21773;50.010;19.972;2023-05-02T09:10:46;9.00;9.00;8.40
35654;PMS1003;21773;50.010;19.972;2023-05-02T09:13:51;7.00;7.00;6.00
35654;PMS1003;21773;50.010;19.972;2023-05-02T09:16:57;8.60;8.60;7.60
35654;PMS1003;21773;50.010;19.972;2023-05-02T09:20:01;7.75;6.75;5.75
35654;PMS1003;21773;50.010;19.972;2023-05-02T09:23:05;7.67;7.67;7.67
35654;PMS1003;21773;50.010;19.972;2023-05-02T09:26:10;7.00;7.00;6.00
35654;PMS1003;21773;50.010;19.972;2023-05-02T09:29:16;10.00;8.00;7.00
35654;PMS1003;21773;50.010;19.972;2023-05-02T09:32:22;7.00;7.00;6.60
35654;PMS1003;21773;50.010;19.972;2023-05-02T09:35:52;6.40;6.40;6.00
35654;PMS1003;21773;50.010;19.972;2023-05-02T09:38:56;9.80;9.80;8.80
35654;PMS1003;21773;50.010;19.972;2023-05-02T09:42:11;6.00;6.00;5.80
35654;PMS1003;21773;50.010;19.972;2023-05-02T09:45:23;9.80;9.20;9.00
35654;PMS1003;21773;50.010;19.972;2023-05-02T09:48:27;8.40;7.40;7.00
35654;PMS1003;21773;50.010;19.972;2023-05-02T09:51:31;7.00;7.00;7.00
35654;PMS1003;21773;50.010;19.972;2023-05-02T09:54:35;6.00;6.00;5.40
35654;PMS1003;21773;50.010;19.972;2023-05-02T09:57:38;9.00;9.00;8.25
35654;PMS1003;21773;50.010;19.972;2023-05-02T10:00:44;6.40;6.00;6.00
35654;PMS1003;21773;50.010;19.972;2023-05-02T10:03:48;6.40;6.40;6.00
35654;PMS1003;21773;50.010;19.972;2023-05-02T10:06:52;7.00;6.00;5.40
35654;PMS1003;21773;50.010;19.972;2023-05-02T10:09:57;8.00;8.00;7.60
35654;PMS1003;21773;50.010;19.972;2023-05-02T10:13:03;6.50;6.00;6.00
35654;PMS1003;21773;50.010;19.972;2023-05-02T10:16:10;7.40;7.40;6.00
35654;PMS1003;21773;50.010;19.972;2023-05-02T10:19:16;6.40;6.00;6.00
35654;PMS1003;21773;50.010;19.972;2023-05-02T10:22:25;7.00;7.00;6.50
35654;PMS1003;21773;50.010;19.972;2023-05-02T10:25:29;11.00;10.40;9.40
35654;PMS1003;21773;50.010;19.972;2023-05-02T10:28:34;6.00;6.00;5.00
35654;PMS1003;21773;50.010;19.972;2023-05-02T10:31:40;7.00;7.00;6.00
35654;PMS1003;21773;50.010;19.972;2023-05-02T10:34:45;6.00;6.00;5.00
35654;PMS1003;21773;50.010;19.972;2023-05-02T10:37:50;6.60;6.60;6.00
35654;PMS1003;21773;50.010;19.972;2023-05-02T10:40:55;6.00;5.50;5.00
35654;PMS1003;21773;50.010;19.972;2023-05-02T10:44:02;7.00;7.00;6.00
35654;PMS1003;21773;50.010;19.972;2023-05-02T10:47:19;8.00;7.80;6.80
35654;PMS1003;21773;50.010;19.972;2023-05-02T10:50:23;7.60;7.60;6.60
35654;PMS1003;21773;50.010;19.972;2023-05-02T10:53:44;8.00;8.00;7.00
35654;PMS1003;21773;50.010;19.972;2023-05-02T10:57:03;9.00;9.00;9.00
35654;PMS1003;21773;50.010;19.972;2023-05-02T11:00:19;7.00;6.60;6.00
35654;PMS1003;21773;50.010;19.972;2023-05-02T11:07:18;7.40;7.40;7.00
35654;PMS1003;21773;50.010;19.972;2023-05-02T11:10:25;7.60;7.60;7.00
35654;PMS1003;21773;50.010;19.972;2023-05-02T11:17:04;9.00;9.00;8.00
35654;PMS1003;21773;50.010;19.972;2023-05-02T11:20:18;8.00;8.00;7.40
35654;PMS1003;21773;50.010;19.972;2023-05-02T11:23:22;5.00;5.00;4.60
35654;PMS1003;21773;50.010;19.972;2023-05-02T11:26:28;7.80;7.80;7.20
35654;PMS1003;21773;50.010;19.972;2023-05-02T11:29:51;8.00;7.20;6.20
35654;PMS1003;21773;50.010;19.972;2023-05-02T11:33:10;7.40;7.00;7.00
35654;PMS1003;21773;50.010;19.972;2023-05-02T11:36:27;7.40;7.00;6.00
35654;PMS1003;21773;50.010;19.972;2023-05-02T11:39:31;8.00;8.00;7.00
35654;PMS1003;21773;50.010;19.972;2023-05-02T11:42:34;9.00;9.00;8.00
35654;PMS1003;21773;50.010;19.972;2023-05-02T11:45:39;8.00;8.00;7.00
35654;PMS1003;21773;50.010;19.972;2023-05-02T11:48:44;7.00;7.00;6.00
35654;PMS1003;21773;50.010;19.972;2023-05-02T11:51:49;8.00;8.00;8.00
35654;PMS1003;21773;50.010;19.972;2023-05-02T11:54:53;7.50;7.50;7.00
35654;PMS1003;21773;50.010;19.972;2023-05-02T11:57:57;8.00;8.00;7.40
35654;PMS1003;21773;50.010;19.972;2023-05-02T12:01:10;7.00;7.00;6.40
35654;PMS1003;21773;50.010;19.972;2023-05-02T12:04:14;8.00;7.25;6.25
35654;PMS1003;21773;50.010;19.972;2023-05-02T12:07:34;7.00;7.00;6.00
35654;PMS1003;21773;50.010;19.972;2023-05-02T12:10:38;7.00;7.00;6.00
35654;PMS1003;21773;50.010;19.972;2023-05-02T12:13:45;7.00;6.00;5.60
35654;PMS1003;21773;50.010;19.972;2023-05-02T12:16:50;7.40;7.00;7.00
35654;PMS1003;21773;50.010;19.972;2023-05-02T12:19:54;9.00;8.00;8.00
35654;PMS1003;21773;50.010;19.972;2023-05-02T12:22:59;8.00;8.00;7.00
35654;PMS1003;21773;50.010;19.972;2023-05-02T12:26:15;6.00;6.00;5.00
35654;PMS1003;21773;50.010;19.972;2023-05-02T12:29:18;6.50;6.00;6.00
35654;PMS1003;21773;50.010;19.972;2023-05-02T12:32:29;8.00;8.00;8.00
35654;PMS1003;21773;50.010;19.972;2023-05-02T12:35:34;5.20;5.20;4.80
35654;PMS1003;21773;50.010;19.972;2023-05-02T12:38:39;8.50;8.00;7.00
35654;PMS1003;21773;50.010;19.972;2023-05-02T12:41:44;7.60;7.00;6.20
35654;PMS1003;21773;50.010;19.972;2023-05-02T12:44:48;7.00;6.60;6.00
35654;PMS1003;21773;50.010;19.972;2023-05-02T12:47:53;7.60;7.40;6.40
35654;PMS1003;21773;50.010;19.972;2023-05-02T12:50:57;10.00;9.00;8.25
35654;PMS1003;21773;50.010;19.972;2023-05-02T12:54:02;7.00;6.00;6.00
35654;PMS1003;21773;50.010;19.972;2023-05-02T12:57:07;10.00;10.00;10.00
35654;PMS1003;21773;50.010;19.972;2023-05-02T13:00:11;8.00;8.00;7.60
35654;PMS1003;21773;50.010;19.972;2023-05-02T13:03:15;8.00;8.00;8.00
35654;PMS1003;21773;50.010;19.972;2023-05-02T13:06:19;9.60;9.60;8.00
35654;PMS1003;21773;50.010;19.972;2023-05-02T13:09:24;7.00;7.00;6.80
35654;PMS1003;21773;50.010;19.972;2023-05-02T13:12:27;10.00;9.60;9.40
35654;PMS1003;21773;50.010;19.972;2023-05-02T13:15:30;9.00;8.00;7.75
35654;PMS1003;21773;50.010;19.972;2023-05-02T13:18:33;6.20;6.00;6.00
35654;PMS1003;21773;50.010;19.972;2023-05-02T13:21:37;8.00;8.00;7.00
35654;PMS1003;21773;50.010;19.972;2023-05-02T13:24:41;10.00;9.00;8.40
35654;PMS1003;21773;50.010;19.972;2023-05-02T13:27:47;6.40;6.00;5.20
35654;PMS1003;21773;50.010;19.972;2023-05-02T13:30:50;6.80;5.20;5.00
35654;PMS1003;21773;50.010;19.972;2023-05-02T13:33:53;10.50;10.00;9.50
35654;PMS1003;21773;50.010;19.972;2023-05-02T13:36:57;9.50;9.00;8.50
35654;PMS1003;21773;50.010;19.972;2023-05-02T13:40:02;10.00;10.00;9.00
35654;PMS1003;21773;50.010;19.972;2023-05-02T13:43:06;8.00;8.00;7.00
35654;PMS1003;21773;50.010;19.972;2023-05-02T13:46:10;7.00;7.00;7.00
35654;PMS1003;21773;50.010;19.972;2023-05-02T13:49:13;8.00;8.00;7.00
35654;PMS1003;21773;50.010;19.972;2023-05-02T13:52:16;9.00;9.00;9.00
35654;PMS1003;21773;50.010;19.972;2023-05-02T13:55:21;7.00;7.00;7.00
35654;PMS1003;21773;50.010;19.972;2023-05-02T13:58:24;7.00;7.00;7.00
35654;PMS1003;21773;50.010;19.972;2023-05-02T14:01:27;7.00;6.00;6.00
35654;PMS1003;21773;50.010;19.972;2023-05-02T14:04:31;7.33;7.33;7.00
35654;PMS1003;21773;50.010;19.972;2023-05-02T14:07:34;7.40;5.80;5.80
35654;PMS1003;21773;50.010;19.972;2023-05-02T14:10:39;7.00;7.00;7.00
35654;PMS1003;21773;50.010;19.972;2023-05-02T14:13:42;5.20;5.00;5.00
35654;PMS1003;21773;50.010;19.972;2023-05-02T14:16:46;7.00;7.00;7.00
35654;PMS1003;21773;50.010;19.972;2023-05-02T14:19:51;8.00;7.00;6.75
35654;PMS1003;21773;50.010;19.972;2023-05-02T14:22:54;6.00;6.00;6.00
35654;PMS1003;21773;50.010;19.972;2023-05-02T14:25:59;6.00;6.00;6.00
35654;PMS1003;21773;50.010;19.972;2023-05-02T14:29:02;6.00;6.00;5.40
35654;PMS1003;21773;50.010;19.972;2023-05-02T14:32:05;6.00;5.00;5.00
35654;PMS1003;21773;50.010;19.972;2023-05-02T14:35:09;6.40;6.40;6.00
35654;PMS1003;21773;50.010;19.972;2023-05-02T14:38:13;7.00;6.40;6.00
35654;PMS1003;21773;50.010;19.972;2023-05-02T14:41:18;8.50;7.00;7.00
35654;PMS1003;21773;50.010;19.972;2023-05-02T14:44:22;6.00;5.60;5.60
35654;PMS1003;21773;50.010;19.972;2023-05-02T14:47:26;5.00;5.00;5.00
35654;PMS1003;21773;50.010;19.972;2023-05-02T14:50:31;7.00;7.00;6.00
35654;PMS1003;21773;50.010;19.972;2023-05-02T14:53:34;4.60;4.60;4.60
35654;PMS1003;21773;50.010;19.972;2023-05-02T14:56:39;6.00;6.00;5.60
35654;PMS1003;21773;50.010;19.972;2023-05-02T14:59:43;4.00;3.60;3.60
35654;PMS1003;21773;50.010;19.972;2023-05-02T15:02:47;6.00;6.00;6.00
35654;PMS1003;21773;50.010;19.972;2023-05-02T15:05:50;8.00;7.25;7.25
35654;PMS1003;21773;50.010;19.972;2023-05-02T15:08:54;6.00;6.00;6.00
35654;PMS1003;21773;50.010;19.972;2023-05-02T15:11:58;6.00;6.00;6.00
35654;PMS1003;21773;50.010;19.972;2023-05-02T15:15:03;7.00;7.00;7.00
35654;PMS1003;21773;50.010;19.972;2023-05-02T15:18:07;6.00;6.00;6.00
35654;PMS1003;21773;50.010;19.972;2023-05-02T15:21:10;6.80;6.80;6.80
35654;PMS1003;21773;50.010;19.972;2023-05-02T15:24:14;7.60;7.60;7.60
35654;PMS1003;21773;50.010;19.972;2023-05-02T15:27:18;8.40;8.00;8.00
35654;PMS1003;21773;50.010;19.972;2023-05-02T15:30:21;7.80;7.80;7.00
35654;PMS1003;21773;50.010;19.972;2023-05-02T15:33:25;7.00;7.00;7.00
35654;PMS1003;21773;50.010;19.972;2023-05-02T15:36:29;9.40;9.40;8.40
35654;PMS1003;21773;50.010;19.972;2023-05-02T15:39:33;10.00;10.00;10.00
35654;PMS1003;21773;50.010;19.972;2023-05-02T15:42:38;10.60;10.40;9.60
35654;PMS1003;21773;50.010;19.972;2023-05-02T15:45:42;11.00;10.40;10.00
35654;PMS1003;21773;50.010;19.972;2023-05-02T15:48:45;12.00;10.60;10.00
35654;PMS1003;21773;50.010;19.972;2023-05-02T15:51:49;13.80;13.00;11.00
35654;PMS1003;21773;50.010;19.972;2023-05-02T15:54:52;11.80;10.80;9.80
35654;PMS1003;21773;50.010;19.972;2023-05-02T15:57:58;10.00;10.00;9.00
35654;PMS1003;21773;50.010;19.972;2023-05-02T16:01:01;12.00;11.50;10.75
35654;PMS1003;21773;50.010;19.972;2023-05-02T16:04:04;11.50;10.50;10.00
35654;PMS1003;21773;50.010;19.972;2023-05-02T16:07:10;13.00;11.40;10.00
35654;PMS1003;21773;50.010;19.972;2023-05-02T16:10:13;12.00;11.40;11.00
35654;PMS1003;21773;50.010;19.972;2023-05-02T16:13:18;12.60;12.20;11.20
35654;PMS1003;21773;50.010;19.972;2023-05-02T16:16:22;11.20;11.00;10.20
35654;PMS1003;21773;50.010;19.972;2023-05-02T16:19:25;11.00;10.00;9.00
35654;PMS1003;21773;50.010;19.972;2023-05-02T16:22:29;11.00;11.00;11.00
35654;PMS1003;21773;50.010;19.972;2023-05-02T16:25:32;14.00;12.60;12.00
35654;PMS1003;21773;50.010;19.972;2023-05-02T16:28:37;13.00;13.00;11.00
35654;PMS1003;21773;50.010;19.972;2023-05-02T16:31:40;12.00;11.40;10.40
35654;PMS1003;21773;50.010;19.972;2023-05-02T16:34:45;12.80;11.80;10.80
35654;PMS1003;21773;50.010;19.972;2023-05-02T16:37:49;12.00;12.00;11.00
35654;PMS1003;21773;50.010;19.972;2023-05-02T16:40:52;11.60;10.60;10.00
35654;PMS1003;21773;50.010;19.972;2023-05-02T16:43:57;11.00;9.40;9.00
35654;PMS1003;21773;50.010;19.972;2023-05-02T16:47:00;12.60;11.60;10.00
35654;PMS1003;21773;50.010;19.972;2023-05-02T16:50:04;13.00;13.00;12.00
35654;PMS1003;21773;50.010;19.972;2023-05-02T16:53:08;14.00;12.00;11.00
35654;PMS1003;21773;50.010;19.972;2023-05-02T16:56:11;10.50;10.50;10.00
35654;PMS1003;21773;50.010;19.972;2023-05-02T16:59:16;11.00;10.00;9.00
35654;PMS1003;21773;50.010;19.972;2023-05-02T17:02:19;12.00;11.00;10.00
35654;PMS1003;21773;50.010;19.972;2023-05-02T17:05:23;15.00;14.00;12.80
35654;PMS1003;21773;50.010;19.972;2023-05-02T17:08:26;13.60;13.00;11.80
35654;PMS1003;21773;50.010;19.972;2023-05-02T17:11:30;14.60;13.60;13.00
35654;PMS1003;21773;50.010;19.972;2023-05-02T17:14:35;15.00;14.00;13.00
35654;PMS1003;21773;50.010;19.972;2023-05-02T17:17:40;14.80;13.80;12.20
35654;PMS1003;21773;50.010;19.972;2023-05-02T17:20:43;16.60;15.60;14.00
35654;PMS1003;21773;50.010;19.972;2023-05-02T17:23:47;14.40;13.00;12.00
35654;PMS1003;21773;50.010;19.972;2023-05-02T17:26:50;16.67;16.00;14.67
35654;PMS1003;21773;50.010;19.972;2023-05-02T17:29:55;16.00;15.00;14.00
35654;PMS1003;21773;50.010;19.972;2023-05-02T17:32:59;12.80;12.80;12.00
35654;PMS1003;21773;50.010;19.972;2023-05-02T17:36:03;16.40;16.00;14.00
35654;PMS1003;21773;50.010;19.972;2023-05-02T17:39:07;15.00;14.80;13.80